Time;durP1;ratioP1;P1;durP2;ratioP2;P2;SDS_P1;SDS_P2;PMS_P1;PMS_P2;Temp;Humidity;BMP_temperature;BMP_pressure;BME280_temperature;BME280_humidity;BME280_pressure;Samples;Min_cycle;Max_cycle;Signal;HPM_P1;HPM_P2
2023/10/21 00:02:43;;;;;;;21.13;9.52;;;;;;;;;;6065921;23;20163;-92
2023/10/21 00:05:51;;;;;;;14.57;7.78;;;;;;;;;;6067010;23;20178;-94
2023/10/21 00:08:56;;;;;;;16.40;8.77;;;;;;;;;;6066990;23;20219;-93
2023/10/21 00:12:01;;;;;;;13.45;8.23;;;;;;;;;;6065637;23;20178;-92
2023/10/21 00:15:08;;;;;;;16.77;9.60;;;;;;;;;;6064706;23;20166;-93
2023/10/21 00:18:13;;;;;;;16.67;9.18;;;;;;;;;;6066440;23;20178;-91
2023/10/21 00:21:19;;;;;;;14.90;8.35;;;;;;;;;;6065993;23;20202;-93
2023/10/21 00:24:25;;;;;;;16.33;9.15;;;;;;;;;;6066107;23;20311;-91
2023/10/21 00:27:30;;;;;;;17.10;9.63;;;;;;;;;;6082132;23;20281;-92
2023/10/21 00:30:37;;;;;;;16.58;8.63;;;;;;;;;;6065849;23;20182;-92
2023/10/21 00:33:42;;;;;;;15.35;8.75;;;;;;;;;;6064458;23;20199;-92
2023/10/21 00:36:47;;;;;;;19.25;9.15;;;;;;;;;;6065603;23;20276;-92
2023/10/21 00:39:52;;;;;;;14.30;7.55;;;;;;;;;;6066102;23;20174;-92
2023/10/21 00:42:57;;;;;;;16.77;7.88;;;;;;;;;;6065868;23;20179;-92
2023/10/21 00:46:06;;;;;;;14.90;7.90;;;;;;;;;;6065244;23;20207;-93
2023/10/21 00:49:12;;;;;;;15.20;8.70;;;;;;;;;;6064734;23;20167;-93
2023/10/21 00:52:17;;;;;;;15.77;8.65;;;;;;;;;;6064937;23;20242;-91
2023/10/21 00:55:23;;;;;;;16.98;9.30;;;;;;;;;;6065930;23;20215;-93
2023/10/21 00:58:30;;;;;;;32.53;14.77;;;;;;;;;;6064661;23;20256;-93
2023/10/21 01:01:37;;;;;;;45.58;21.58;;;;;;;;;;6066554;23;20198;-94
2023/10/21 01:04:43;;;;;;;20.05;10.43;;;;;;;;;;6064814;23;20171;-91
2023/10/21 01:07:49;;;;;;;20.55;10.65;;;;;;;;;;6064188;23;20188;-91
2023/10/21 01:10:54;;;;;;;17.38;9.88;;;;;;;;;;6082473;23;20174;-94
2023/10/21 01:14:03;;;;;;;20.65;9.88;;;;;;;;;;6065132;23;20175;-92
2023/10/21 01:17:10;;;;;;;16.52;8.65;;;;;;;;;;6067402;23;20228;-93
2023/10/21 01:20:16;;;;;;;18.08;8.63;;;;;;;;;;6064522;23;20501;-93
2023/10/21 01:23:23;;;;;;;15.55;8.57;;;;;;;;;;6064132;23;20155;-93
2023/10/21 01:26:28;;;;;;;18.88;8.55;;;;;;;;;;6065681;23;20163;-93
2023/10/21 01:29:33;;;;;;;17.60;8.93;;;;;;;;;;6064155;23;20182;-91
2023/10/21 01:32:39;;;;;;;18.00;9.18;;;;;;;;;;6065127;23;20210;-95
2023/10/21 01:35:44;;;;;;;20.40;9.80;;;;;;;;;;6064425;23;20191;-91
2023/10/21 01:38:51;;;;;;;18.77;9.15;;;;;;;;;;6064098;23;20199;-91
2023/10/21 01:41:56;;;;;;;17.58;9.77;;;;;;;;;;6063687;23;20223;-92
2023/10/21 01:45:01;;;;;;;23.20;10.00;;;;;;;;;;6066446;23;20234;-90
2023/10/21 01:48:08;;;;;;;18.33;9.20;;;;;;;;;;6065193;23;20170;-94
2023/10/21 01:51:13;;;;;;;17.33;8.60;;;;;;;;;;6065488;23;20619;-91
2023/10/21 01:54:22;;;;;;;16.45;9.05;;;;;;;;;;6066101;23;20171;-90
2023/10/21 01:57:26;;;;;;;15.80;8.65;;;;;;;;;;6066096;23;20179;-90
2023/10/21 02:00:32;;;;;;;15.95;9.25;;;;;;;;;;6065917;23;20154;-94
2023/10/21 02:03:37;;;;;;;17.30;9.18;;;;;;;;;;6065567;23;20174;-93
2023/10/21 02:06:43;;;;;;;15.27;8.95;;;;;;;;;;6066189;23;20230;-93
2023/10/21 02:09:50;;;;;;;14.68;8.50;;;;;;;;;;6063483;23;20171;-92
2023/10/21 02:12:55;;;;;;;18.02;8.80;;;;;;;;;;6064063;23;20159;-92
2023/10/21 02:16:00;;;;;;;18.80;9.10;;;;;;;;;;6065405;23;20223;-89
2023/10/21 02:19:06;;;;;;;20.17;9.48;;;;;;;;;;6063759;23;20166;-92
2023/10/21 02:22:14;;;;;;;20.17;9.18;;;;;;;;;;6064652;23;20202;-92
2023/10/21 02:25:21;;;;;;;17.00;7.97;;;;;;;;;;6062770;23;20505;-93
2023/10/21 02:28:26;;;;;;;20.27;8.57;;;;;;;;;;6063559;23;20158;-93
2023/10/21 02:31:31;;;;;;;16.83;9.23;;;;;;;;;;6063857;23;20182;-92
2023/10/21 02:34:40;;;;;;;17.35;9.57;;;;;;;;;;6064441;23;20292;-94
2023/10/21 02:37:45;;;;;;;19.85;9.15;;;;;;;;;;6064321;23;20248;-92
2023/10/21 02:40:51;;;;;;;17.50;8.88;;;;;;;;;;6063698;23;20696;-94
2023/10/21 02:43:57;;;;;;;16.10;9.27;;;;;;;;;;6062197;23;20236;-93
2023/10/21 02:47:02;;;;;;;16.70;8.38;;;;;;;;;;6063590;23;20150;-91
2023/10/21 02:50:08;;;;;;;18.80;8.93;;;;;;;;;;6061738;23;20175;-90
2023/10/21 02:53:13;;;;;;;20.83;9.70;;;;;;;;;;6062706;23;20171;-91
2023/10/21 02:56:20;;;;;;;16.23;8.70;;;;;;;;;;6062147;23;20217;-93
2023/10/21 02:59:25;;;;;;;15.13;7.90;;;;;;;;;;6062963;23;20170;-93
2023/10/21 03:02:30;;;;;;;19.75;8.32;;;;;;;;;;6061278;23;20197;-92
2023/10/21 03:05:35;;;;;;;14.70;8.02;;;;;;;;;;6062713;23;20167;-91
2023/10/21 03:08:41;;;;;;;18.52;8.15;;;;;;;;;;6065695;23;20171;-93
2023/10/21 03:11:47;;;;;;;14.60;7.68;;;;;;;;;;6064279;23;20174;-92
2023/10/21 03:14:53;;;;;;;15.98;8.75;;;;;;;;;;6062844;23;20171;-93
2023/10/21 03:17:58;;;;;;;19.70;9.02;;;;;;;;;;6061751;23;20581;-93
2023/10/21 03:21:03;;;;;;;18.75;8.15;;;;;;;;;;6060018;23;20183;-91
2023/10/21 03:24:08;;;;;;;17.88;8.63;;;;;;;;;;6062346;23;20166;-93
2023/10/21 03:27:15;;;;;;;16.73;8.35;;;;;;;;;;6061140;23;20174;-91
2023/10/21 03:30:20;;;;;;;19.45;8.73;;;;;;;;;;6060271;23;20186;-91
2023/10/21 03:33:26;;;;;;;21.52;9.35;;;;;;;;;;6061072;23;20195;-92
2023/10/21 03:36:31;;;;;;;17.15;8.48;;;;;;;;;;6061813;23;20179;-91
2023/10/21 03:39:37;;;;;;;16.05;7.40;;;;;;;;;;6063508;23;20171;-91
2023/10/21 03:42:43;;;;;;;16.08;7.60;;;;;;;;;;6064381;23;20206;-93
2023/10/21 03:45:48;;;;;;;18.00;8.20;;;;;;;;;;6078945;23;20287;-93
2023/10/21 03:48:53;;;;;;;17.55;8.20;;;;;;;;;;6063886;23;20283;-92
2023/10/21 03:51:58;;;;;;;17.27;8.48;;;;;;;;;;6063754;23;20158;-93
2023/10/21 03:55:04;;;;;;;16.50;8.07;;;;;;;;;;6063791;23;20230;-92
2023/10/21 03:58:11;;;;;;;16.13;7.88;;;;;;;;;;6064662;23;20183;-94
2023/10/21 04:01:16;;;;;;;15.52;7.60;;;;;;;;;;6064260;23;20178;-92
2023/10/21 04:04:21;;;;;;;17.40;7.78;;;;;;;;;;6064406;23;20175;-90
2023/10/21 04:07:27;;;;;;;22.65;8.90;;;;;;;;;;6065004;23;20175;-91
2023/10/21 04:10:33;;;;;;;24.40;9.10;;;;;;;;;;6066037;23;20175;-92
2023/10/21 04:13:39;;;;;;;23.92;9.52;;;;;;;;;;6066705;23;20276;-92
2023/10/21 04:16:45;;;;;;;35.28;9.32;;;;;;;;;;6065125;23;20274;-94
2023/10/21 04:19:52;;;;;;;23.58;9.95;;;;;;;;;;6064697;23;20170;-93
2023/10/21 04:22:57;;;;;;;18.77;8.55;;;;;;;;;;6081638;23;20210;-91
2023/10/21 04:26:02;;;;;;;14.27;7.70;;;;;;;;;;6066300;23;20153;-92
2023/10/21 04:29:12;;;;;;;17.10;7.85;;;;;;;;;;6066423;23;20495;-92
2023/10/21 04:32:21;;;;;;;18.20;8.18;;;;;;;;;;6065852;23;20175;-93
2023/10/21 04:35:26;;;;;;;15.75;7.80;;;;;;;;;;6062961;23;20178;-92
2023/10/21 04:38:32;;;;;;;17.17;8.77;;;;;;;;;;6065236;23;20163;-92
2023/10/21 04:41:37;;;;;;;23.52;8.52;;;;;;;;;;6081742;23;20223;-91
2023/10/21 04:44:44;;;;;;;47.30;8.68;;;;;;;;;;6067318;23;21040;-92
2023/10/21 04:47:50;;;;;;;31.65;9.45;;;;;;;;;;6064800;23;20169;-91
2023/10/21 04:50:55;;;;;;;40.35;13.82;;;;;;;;;;6064178;23;20239;-91
2023/10/21 04:54:01;;;;;;;62.80;20.15;;;;;;;;;;6065977;23;20174;-91
2023/10/21 04:57:06;;;;;;;47.15;14.43;;;;;;;;;;6064981;23;20179;-92
2023/10/21 05:00:14;;;;;;;42.83;9.13;;;;;;;;;;6064923;23;20179;-92
2023/10/21 05:03:20;;;;;;;47.67;10.05;;;;;;;;;;6081797;23;20198;-93
2023/10/21 05:06:25;;;;;;;38.17;10.57;;;;;;;;;;6063188;23;20186;-90
2023/10/21 05:09:31;;;;;;;22.70;8.90;;;;;;;;;;6064214;23;20246;-92
2023/10/21 05:12:37;;;;;;;38.72;9.07;;;;;;;;;;6064964;23;20198;-93
2023/10/21 05:15:44;;;;;;;30.80;8.80;;;;;;;;;;6064482;23;20182;-90
2023/10/21 05:18:49;;;;;;;37.15;9.18;;;;;;;;;;6063718;23;20171;-92
2023/10/21 05:21:54;;;;;;;32.13;8.75;;;;;;;;;;6064552;23;20198;-94
2023/10/21 05:24:59;;;;;;;42.83;9.02;;;;;;;;;;6063953;23;20223;-92
2023/10/21 05:28:04;;;;;;;37.65;9.65;;;;;;;;;;6065632;23;20196;-90
2023/10/21 05:31:11;;;;;;;35.83;9.02;;;;;;;;;;6064834;23;20170;-94
2023/10/21 05:34:19;;;;;;;35.90;9.63;;;;;;;;;;6065976;23;20174;-93
2023/10/21 05:37:24;;;;;;;22.83;8.93;;;;;;;;;;6065590;23;20167;-92
2023/10/21 05:40:29;;;;;;;26.83;9.13;;;;;;;;;;6080087;23;20170;-91
2023/10/21 05:43:34;;;;;;;25.02;9.70;;;;;;;;;;6078243;23;20193;-91
2023/10/21 05:46:41;;;;;;;26.25;8.85;;;;;;;;;;6062144;23;20277;-93
2023/10/21 05:49:46;;;;;;;25.30;8.85;;;;;;;;;;6061775;23;20170;-91
2023/10/21 05:52:51;;;;;;;22.85;7.65;;;;;;;;;;6061630;23;20165;-91
2023/10/21 05:56:00;;;;;;;16.35;8.57;;;;;;;;;;6063301;23;20646;-93
2023/10/21 05:59:05;;;;;;;22.90;7.90;;;;;;;;;;6063861;23;20170;-91
2023/10/21 06:02:11;;;;;;;16.25;7.93;;;;;;;;;;6065302;23;20242;-93
2023/10/21 06:05:17;;;;;;;13.45;8.05;;;;;;;;;;6065601;23;20211;-91
2023/10/21 06:08:22;;;;;;;18.02;9.73;;;;;;;;;;6066552;23;20178;-91
2023/10/21 06:11:27;;;;;;;22.23;10.50;;;;;;;;;;6081764;23;20170;-93
2023/10/21 06:14:33;;;;;;;20.60;9.30;;;;;;;;;;6065908;23;20246;-92
2023/10/21 06:17:41;;;;;;;22.35;9.95;;;;;;;;;;6065882;23;20162;-92
2023/10/21 06:20:48;;;;;;;41.70;10.13;;;;;;;;;;6065971;23;20210;-95
2023/10/21 06:23:53;;;;;;;32.55;10.43;;;;;;;;;;6067455;23;20230;-93
2023/10/21 06:27:00;;;;;;;20.02;10.05;;;;;;;;;;6065684;23;20248;-93
2023/10/21 06:30:06;;;;;;;22.90;9.50;;;;;;;;;;6064354;23;20504;-94
2023/10/21 06:33:13;;;;;;;19.33;9.07;;;;;;;;;;6065778;23;20231;-92
2023/10/21 06:36:18;;;;;;;18.73;9.65;;;;;;;;;;6066310;23;20151;-94
2023/10/21 06:39:24;;;;;;;39.20;19.23;;;;;;;;;;6065406;23;20166;-91
2023/10/21 06:42:29;;;;;;;16.75;9.43;;;;;;;;;;6063999;23;20319;-91
2023/10/21 06:45:36;;;;;;;21.67;9.57;;;;;;;;;;6064036;23;20182;-92
2023/10/21 06:48:43;;;;;;;16.65;9.18;;;;;;;;;;6063521;23;20162;-91
2023/10/21 06:51:50;;;;;;;17.98;8.95;;;;;;;;;;6062459;23;20192;-94
2023/10/21 06:54:55;;;;;;;18.25;10.13;;;;;;;;;;6064825;23;20193;-91
2023/10/21 06:58:01;;;;;;;18.52;9.02;;;;;;;;;;6067354;23;20174;-94
2023/10/21 07:01:06;;;;;;;20.83;11.35;;;;;;;;;;6062982;23;20183;-93
2023/10/21 07:04:14;;;;;;;23.20;10.93;;;;;;;;;;6067833;23;20162;-92
2023/10/21 07:07:19;;;;;;;18.25;10.15;;;;;;;;;;6065395;23;20506;-95
2023/10/21 07:10:27;;;;;;;17.17;10.00;;;;;;;;;;6065424;23;20154;-91
2023/10/21 07:13:31;;;;;;;18.42;8.85;;;;;;;;;;6064918;23;20166;-93
2023/10/21 07:16:37;;;;;;;15.80;9.00;;;;;;;;;;6064640;23;20173;-92
2023/10/21 07:19:46;;;;;;;14.60;8.00;;;;;;;;;;6070833;23;20175;-91
2023/10/21 07:22:51;;;;;;;15.13;8.38;;;;;;;;;;6068221;23;20198;-92
2023/10/21 07:29:19;;;;;;;22.38;10.55;;;;;;;;;;6070163;23;20155;-91
2023/10/21 07:32:27;;;;;;;17.33;9.35;;;;;;;;;;6070052;23;20163;-91
2023/10/21 07:35:35;;;;;;;23.23;10.40;;;;;;;;;;6070067;23;20199;-94
2023/10/21 07:38:40;;;;;;;17.80;8.80;;;;;;;;;;6068908;23;20174;-92
2023/10/21 07:41:46;;;;;;;15.65;8.13;;;;;;;;;;6065528;23;20170;-93
2023/10/21 07:44:51;;;;;;;23.95;11.32;;;;;;;;;;6068192;23;20178;-91
2023/10/21 07:47:57;;;;;;;21.42;10.38;;;;;;;;;;6066396;23;20166;-93
2023/10/21 10:58:48;;;;;;;3.65;2.25;;;;;;;;;;6042673;23;20255;-92
2023/10/21 11:01:58;;;;;;;4.85;2.35;;;;;;;;;;6067571;23;20171;-92
2023/10/21 11:05:03;;;;;;;3.97;2.30;;;;;;;;;;6084685;23;20179;-94
2023/10/21 11:08:10;;;;;;;3.13;2.10;;;;;;;;;;6069284;23;20210;-93
2023/10/21 11:11:15;;;;;;;6.05;2.63;;;;;;;;;;6083670;23;20170;-92
2023/10/21 11:14:24;;;;;;;4.60;1.98;;;;;;;;;;6083782;23;20173;-93
2023/10/21 11:17:29;;;;;;;4.30;2.22;;;;;;;;;;6084709;23;20214;-93
2023/10/21 11:20:35;;;;;;;4.63;2.20;;;;;;;;;;6068727;23;20175;-94
2023/10/21 11:23:40;;;;;;;2.90;2.20;;;;;;;;;;6085818;23;20194;-93
2023/10/21 11:26:46;;;;;;;4.90;2.38;;;;;;;;;;6083782;23;20174;-93
2023/10/21 11:29:53;;;;;;;4.32;2.08;;;;;;;;;;6084189;23;20154;-93
2023/10/21 11:36:17;;;;;;;2.75;1.65;;;;;;;;;;6066406;23;20219;-92
2023/10/21 11:39:23;;;;;;;2.45;1.50;;;;;;;;;;6086410;23;20610;-92
2023/10/21 11:42:29;;;;;;;3.28;1.35;;;;;;;;;;6086288;23;20182;-91
2023/10/21 12:15:19;;;;;;;2.53;1.30;;;;;;;;;;5983662;23;20205;-91
2023/10/21 12:18:44;;;;;;;2.47;1.50;;;;;;;;;;6086792;23;20183;-93
2023/10/21 12:25:46;;;;;;;3.70;1.50;;;;;;;;;;6087737;23;20173;-93
2023/10/21 12:32:43;;;;;;;2.65;1.20;;;;;;;;;;6044440;23;20182;-93
2023/10/21 12:36:10;;;;;;;2.95;0.90;;;;;;;;;;6085824;23;20158;-91
2023/10/21 12:39:23;;;;;;;2.22;0.60;;;;;;;;;;6068752;23;20183;-91
2023/10/21 12:42:34;;;;;;;1.63;1.00;;;;;;;;;;6083939;23;20171;-92
2023/10/21 12:45:45;;;;;;;3.30;1.15;;;;;;;;;;6084389;23;20241;-93
2023/10/21 12:48:56;;;;;;;1.80;1.00;;;;;;;;;;6085097;23;20163;-93
2023/10/21 12:52:11;;;;;;;1.77;1.02;;;;;;;;;;6084019;23;20241;-93
2023/10/21 12:55:16;;;;;;;2.28;1.10;;;;;;;;;;6082823;23;20250;-91
2023/10/21 12:58:21;;;;;;;13.15;6.22;;;;;;;;;;6083347;23;20174;-91
2023/10/21 13:01:26;;;;;;;2.17;1.02;;;;;;;;;;6067559;23;20154;-92
2023/10/21 13:04:32;;;;;;;2.00;0.90;;;;;;;;;;6083907;23;20179;-91
2023/10/21 13:07:48;;;;;;;1.42;1.15;;;;;;;;;;6086126;23;20158;-92
2023/10/21 13:10:56;;;;;;;3.17;1.02;;;;;;;;;;6086074;23;20215;-92
2023/10/21 13:14:01;;;;;;;3.88;1.23;;;;;;;;;;6066863;23;20186;-92
2023/10/21 13:17:08;;;;;;;2.03;1.00;;;;;;;;;;6082846;23;20245;-92
2023/10/21 13:20:17;;;;;;;3.38;1.20;;;;;;;;;;6082242;23;20162;-92
2023/10/21 13:23:25;;;;;;;1.65;0.85;;;;;;;;;;6082678;23;20194;-93
2023/10/21 13:26:30;;;;;;;1.33;0.90;;;;;;;;;;6079099;23;20598;-92
2023/10/21 13:29:36;;;;;;;1.45;0.90;;;;;;;;;;6064059;23;20258;-93
2023/10/21 13:32:42;;;;;;;1.48;0.88;;;;;;;;;;6081157;23;20167;-91
2023/10/21 13:35:47;;;;;;;1.00;0.90;;;;;;;;;;6083453;23;20183;-93
2023/10/21 13:38:55;;;;;;;1.45;0.90;;;;;;;;;;6083699;23;20173;-93
2023/10/21 13:42:00;;;;;;;1.90;1.10;;;;;;;;;;6084946;23;20263;-93
2023/10/21 13:45:13;;;;;;;1.23;0.93;;;;;;;;;;6086080;23;20274;-94
2023/10/21 13:48:19;;;;;;;1.55;0.80;;;;;;;;;;6085167;23;20227;-93
2023/10/21 13:51:25;;;;;;;4.57;0.90;;;;;;;;;;6065553;23;20177;-93
2023/10/21 13:54:31;;;;;;;2.72;1.10;;;;;;;;;;6080728;23;20174;-92
2023/10/21 13:57:37;;;;;;;1.65;1.20;;;;;;;;;;6082853;23;20194;-92
2023/10/21 14:00:42;;;;;;;3.10;1.05;;;;;;;;;;6080911;23;20154;-92
2023/10/21 14:03:47;;;;;;;2.90;1.10;;;;;;;;;;6082780;23;20198;-92
2023/10/21 14:06:52;;;;;;;3.05;1.40;;;;;;;;;;6080706;23;20174;-91
2023/10/21 14:09:59;;;;;;;1.88;1.20;;;;;;;;;;6080642;23;20158;-92
2023/10/21 14:13:04;;;;;;;2.72;0.90;;;;;;;;;;6082835;23;20170;-92
2023/10/21 14:16:11;;;;;;;1.35;0.80;;;;;;;;;;6079489;23;20182;-93
2023/10/21 14:19:17;;;;;;;1.70;1.00;;;;;;;;;;6081318;23;20199;-93
2023/10/21 14:22:25;;;;;;;3.47;1.35;;;;;;;;;;6080649;23;20622;-92
2023/10/21 14:25:33;;;;;;;0.90;0.80;;;;;;;;;;6083116;23;20155;-94
2023/10/21 14:28:40;;;;;;;1.85;0.90;;;;;;;;;;6069181;23;20287;-92
2023/10/21 14:31:47;;;;;;;4.40;1.23;;;;;;;;;;6086931;23;20246;-94
2023/10/21 14:34:53;;;;;;;2.92;1.50;;;;;;;;;;6082250;23;20167;-93
2023/10/21 14:37:59;;;;;;;1.30;0.82;;;;;;;;;;6082408;23;20175;-92
2023/10/21 14:41:09;;;;;;;3.45;0.85;;;;;;;;;;6080845;23;20219;-92
2023/10/21 14:44:14;;;;;;;1.63;0.90;;;;;;;;;;6065952;23;20197;-93
2023/10/21 14:47:25;;;;;;;0.93;0.70;;;;;;;;;;6081275;23;20170;-91
2023/10/21 14:50:30;;;;;;;1.35;0.90;;;;;;;;;;6079674;23;20189;-91
2023/10/21 14:53:35;;;;;;;1.08;0.80;;;;;;;;;;6063741;23;20223;-93
2023/10/21 14:56:44;;;;;;;3.08;1.02;;;;;;;;;;6082398;23;20194;-94
2023/10/21 14:59:49;;;;;;;1.55;0.98;;;;;;;;;;6083367;23;20171;-91
2023/10/21 15:02:59;;;;;;;1.33;0.90;;;;;;;;;;6082873;23;20175;-93
2023/10/21 15:06:05;;;;;;;3.00;1.70;;;;;;;;;;6081251;23;20174;-93
2023/10/21 15:09:10;;;;;;;3.28;1.45;;;;;;;;;;6080068;23;20205;-92
2023/10/21 15:12:22;;;;;;;4.55;1.38;;;;;;;;;;6078961;23;20219;-93
2023/10/21 15:15:27;;;;;;;1.45;0.90;;;;;;;;;;6081395;23;20617;-91
2023/10/21 15:18:33;;;;;;;2.67;1.48;;;;;;;;;;6064152;23;20185;-91
2023/10/21 15:21:38;;;;;;;2.00;1.20;;;;;;;;;;6081559;23;20174;-92
2023/10/21 15:24:44;;;;;;;26.25;1.73;;;;;;;;;;6083266;23;20279;-93
2023/10/21 15:27:52;;;;;;;4.10;1.30;;;;;;;;;;6083564;23;20264;-91
2023/10/21 15:30:57;;;;;;;3.20;1.48;;;;;;;;;;6081413;23;20154;-91
2023/10/21 15:37:25;;;;;;;4.43;2.40;;;;;;;;;;6085346;23;20214;-92
2023/10/21 15:40:31;;;;;;;4.03;1.70;;;;;;;;;;6087844;23;20178;-89
2023/10/21 15:43:39;;;;;;;2.72;1.70;;;;;;;;;;6084900;23;20194;-91
2023/10/21 15:46:45;;;;;;;5.47;2.10;;;;;;;;;;6084616;23;20209;-94
2023/10/21 15:49:51;;;;;;;3.42;1.70;;;;;;;;;;6083848;23;20192;-92
2023/10/21 15:52:57;;;;;;;6.95;2.40;;;;;;;;;;6082957;23;20174;-92
2023/10/21 15:56:02;;;;;;;4.72;1.90;;;;;;;;;;6083819;23;20194;-92
2023/10/21 18:23:36;;;;;;;20.60;8.07;;;;;;;;;;6039354;23;20282;-91
2023/10/21 18:26:43;;;;;;;13.40;5.55;;;;;;;;;;6061587;23;20159;-93
2023/10/21 18:29:49;;;;;;;13.32;6.53;;;;;;;;;;6084110;23;20251;-93
2023/10/21 18:32:56;;;;;;;10.32;5.43;;;;;;;;;;6087397;23;20158;-93
2023/10/21 18:36:01;;;;;;;14.25;6.22;;;;;;;;;;6067900;23;20499;-92
2023/10/21 18:39:09;;;;;;;12.02;5.20;;;;;;;;;;6082749;23;20178;-93
2023/10/21 18:42:14;;;;;;;13.05;4.80;;;;;;;;;;6070105;23;20258;-93
2023/10/21 18:45:24;;;;;;;17.08;5.50;;;;;;;;;;6087513;23;20178;-94
2023/10/21 18:48:30;;;;;;;14.55;5.55;;;;;;;;;;6085380;23;20166;-92
2023/10/21 18:51:36;;;;;;;11.00;5.00;;;;;;;;;;6086093;23;20495;-93
2023/10/21 18:54:43;;;;;;;11.70;4.78;;;;;;;;;;6081092;23;20253;-94
2023/10/21 18:57:49;;;;;;;17.98;8.75;;;;;;;;;;6080848;23;20174;-93
2023/10/21 19:00:59;;;;;;;25.23;10.85;;;;;;;;;;6083453;23;20167;-92
2023/10/21 19:04:15;;;;;;;14.27;6.22;;;;;;;;;;6068133;23;20301;-93
2023/10/21 19:07:21;;;;;;;14.27;5.50;;;;;;;;;;6084119;23;20218;-92
2023/10/21 19:10:28;;;;;;;10.88;5.05;;;;;;;;;;6082271;23;20170;-94
2023/10/21 19:13:34;;;;;;;12.27;6.20;;;;;;;;;;6083322;23;20166;-92
2023/10/21 19:16:39;;;;;;;12.15;6.18;;;;;;;;;;6083687;23;20173;-93
2023/10/21 19:19:44;;;;;;;12.15;5.43;;;;;;;;;;6086517;23;20175;-92
2023/10/21 19:22:50;;;;;;;12.20;5.68;;;;;;;;;;6084137;23;20235;-91
2023/10/21 19:25:57;;;;;;;21.25;9.38;;;;;;;;;;6087630;23;20241;-94
2023/10/21 19:29:04;;;;;;;15.05;5.70;;;;;;;;;;6064773;23;20174;-92
2023/10/21 19:32:09;;;;;;;12.77;6.50;;;;;;;;;;6083529;23;20174;-93
2023/10/21 19:35:14;;;;;;;14.65;6.65;;;;;;;;;;6080762;23;20496;-92
2023/10/21 19:38:19;;;;;;;17.98;6.25;;;;;;;;;;6066415;23;20184;-91
2023/10/21 19:41:28;;;;;;;9.10;5.20;;;;;;;;;;6066571;23;20154;-91
2023/10/21 19:44:33;;;;;;;9.13;3.97;;;;;;;;;;6066276;23;20202;-92
2023/10/21 19:47:38;;;;;;;7.05;3.45;;;;;;;;;;6084457;23;20178;-94
2023/10/21 19:50:44;;;;;;;5.35;2.13;;;;;;;;;;6066557;23;20189;-93
2023/10/21 19:53:51;;;;;;;4.38;1.88;;;;;;;;;;6083823;23;20182;-90
2023/10/21 19:56:58;;;;;;;1.85;1.10;;;;;;;;;;6068929;23;20222;-93
2023/10/21 20:00:04;;;;;;;3.40;1.83;;;;;;;;;;6088108;23;20203;-92
2023/10/21 20:03:16;;;;;;;5.20;1.98;;;;;;;;;;6085934;23;20178;-93
2023/10/21 20:06:23;;;;;;;9.30;5.15;;;;;;;;;;6084737;23;20227;-91
2023/10/21 20:09:29;;;;;;;2.45;0.90;;;;;;;;;;6085547;23;20277;-90
2023/10/21 20:12:38;;;;;;;1.52;0.90;;;;;;;;;;6085192;23;20192;-93
2023/10/21 20:15:49;;;;;;;1.13;0.80;;;;;;;;;;6073453;23;20227;-94
2023/10/21 20:18:57;;;;;;;2.40;1.20;;;;;;;;;;6088012;23;20217;-94
2023/10/21 20:22:03;;;;;;;2.90;1.10;;;;;;;;;;6086704;23;20239;-92
2023/10/21 20:25:09;;;;;;;1.52;1.00;;;;;;;;;;6068916;23;20198;-93
2023/10/21 20:28:17;;;;;;;3.05;1.42;;;;;;;;;;6084241;23;20158;-91
2023/10/21 20:31:22;;;;;;;2.03;0.75;;;;;;;;;;6083451;23;20183;-91
2023/10/21 20:34:29;;;;;;;1.42;0.80;;;;;;;;;;6086460;23;20162;-93
2023/10/21 20:37:35;;;;;;;2.20;0.80;;;;;;;;;;6069577;23;20178;-92
2023/10/21 20:40:42;;;;;;;1.35;0.80;;;;;;;;;;6085015;23;20190;-91
2023/10/21 20:43:51;;;;;;;2.65;1.60;;;;;;;;;;6082668;23;20183;-93
2023/10/21 20:46:57;;;;;;;4.05;1.05;;;;;;;;;;6083577;23;20262;-94
2023/10/21 20:50:02;;;;;;;1.00;0.70;;;;;;;;;;6083421;23;20224;-92
2023/10/21 20:53:08;;;;;;;1.52;1.00;;;;;;;;;;6082605;23;20302;-93
2023/10/21 20:56:20;;;;;;;1.38;0.77;;;;;;;;;;6083317;23;20154;-91
2023/10/21 20:59:29;;;;;;;1.30;0.80;;;;;;;;;;6084349;23;20203;-91
2023/10/21 21:02:35;;;;;;;2.13;0.85;;;;;;;;;;6083911;23;20173;-93
2023/10/21 21:05:41;;;;;;;3.58;0.80;;;;;;;;;;6084634;23;20195;-91
2023/10/21 21:08:47;;;;;;;3.38;0.90;;;;;;;;;;6080181;23;20182;-91
2023/10/21 21:12:13;;;;;;;2.10;0.98;;;;;;;;;;6082391;23;20191;-93
2023/10/21 21:15:39;;;;;;;5.45;1.90;;;;;;;;;;6080833;23;20199;-91
2023/10/21 21:19:04;;;;;;;1.63;0.90;;;;;;;;;;6080813;23;20175;-93
2023/10/21 21:22:30;;;;;;;6.97;1.25;;;;;;;;;;6080644;23;20254;-93
2023/10/21 21:25:57;;;;;;;6.45;1.60;;;;;;;;;;6083554;23;20207;-92
2023/10/21 21:29:21;;;;;;;3.80;1.77;;;;;;;;;;6082476;23;20175;-93
2023/10/21 21:32:50;;;;;;;5.10;2.28;;;;;;;;;;6080895;23;20195;-92
2023/10/21 21:36:20;;;;;;;5.57;2.30;;;;;;;;;;6081438;23;20240;-93
2023/10/21 21:39:46;;;;;;;2.05;1.05;;;;;;;;;;6081411;23;20170;-92
2023/10/21 21:43:10;;;;;;;2.65;1.20;;;;;;;;;;6082488;23;20171;-94
2023/10/21 21:46:37;;;;;;;2.28;1.02;;;;;;;;;;6082257;23;20198;-92
2023/10/21 21:50:03;;;;;;;5.65;1.38;;;;;;;;;;6083554;23;20244;-92
2023/10/21 21:53:29;;;;;;;4.10;1.27;;;;;;;;;;6081394;23;20175;-93
2023/10/21 21:56:55;;;;;;;1.80;1.05;;;;;;;;;;6081645;23;20215;-94
2023/10/21 22:00:36;;;;;;;2.58;1.30;;;;;;;;;;6079115;23;20170;-93
2023/10/21 22:04:02;;;;;;;3.33;1.27;;;;;;;;;;6081208;23;20220;-93
2023/10/21 22:07:28;;;;;;;3.65;1.45;;;;;;;;;;6082753;23;20199;-92
2023/10/21 22:10:54;;;;;;;2.90;1.40;;;;;;;;;;6081403;23;20230;-94
2023/10/21 22:14:20;;;;;;;4.60;2.25;;;;;;;;;;6081960;23;20171;-93
2023/10/21 22:17:45;;;;;;;4.07;1.75;;;;;;;;;;6083085;23;20155;-93
2023/10/21 22:21:12;;;;;;;3.95;1.48;;;;;;;;;;6085517;23;20174;-94
2023/10/21 22:24:38;;;;;;;2.30;1.17;;;;;;;;;;6082079;23;20195;-93
2023/10/21 22:28:21;;;;;;;1.38;0.70;;;;;;;;;;6085587;23;20214;-91
2023/10/21 22:31:47;;;;;;;3.47;0.85;;;;;;;;;;6084101;23;20174;-93
2023/10/21 22:35:13;;;;;;;1.38;0.93;;;;;;;;;;6084667;23;20170;-91
2023/10/21 22:38:39;;;;;;;6.05;1.00;;;;;;;;;;6083828;23;20178;-92
2023/10/21 22:42:06;;;;;;;1.65;1.00;;;;;;;;;;6081351;23;20175;-92
2023/10/21 22:45:32;;;;;;;1.85;0.75;;;;;;;;;;6079888;23;20198;-94
2023/10/21 22:48:58;;;;;;;2.83;0.90;;;;;;;;;;6082249;23;20174;-94
2023/10/21 22:52:24;;;;;;;1.58;0.90;;;;;;;;;;6082445;23;20175;-93
2023/10/21 23:32:28;;;;;;;0.80;0.60;;;;;;;;;;6037907;23;20204;-92
2023/10/21 23:35:53;;;;;;;2.45;0.60;;;;;;;;;;6083867;23;20491;-91
2023/10/21 23:39:21;;;;;;;3.65;1.02;;;;;;;;;;6082614;23;20171;-92
2023/10/21 23:42:48;;;;;;;3.75;0.80;;;;;;;;;;6081967;23;20179;-92
2023/10/21 23:46:13;;;;;;;1.42;0.82;;;;;;;;;;6082493;23;20230;-92
2023/10/21 23:49:38;;;;;;;1.42;0.70;;;;;;;;;;6081092;23;20227;-91
2023/10/21 23:53:03;;;;;;;0.73;0.60;;;;;;;;;;6081498;23;20155;-92
2023/10/21 23:56:29;;;;;;;3.00;0.80;;;;;;;;;;6082796;23;20175;-92
2023/10/21 23:59:55;;;;;;;0.50;0.50;;;;;;;;;;6080848;23;20198;-92
